Time,TemperatureF,DewpointF,PressureIn,WindDirection,WindDirectionDegrees,WindSpeedMPH,WindSpeedGustMPH,Humidity,HourlyPrecipIn,Conditions,Clouds,dailyrainin,SoftwareType,DateUTC
2013-04-14 09:00:00,56.6,46.2,29.34,West,264,10.0,10.0,68,0.00,,,0.00,Wunderground v.1.15,2013-04-14 14:00:00,
2013-04-14 09:10:00,56.8,46.3,29.33,WNW,288,8.0,8.0,68,0.00,,,0.00,Wunderground v.1.15,2013-04-14 14:10:00,
2013-04-14 09:20:00,57.5,46.2,29.33,WNW,295,6.0,8.0,66,0.00,,,0.00,Wunderground v.1.15,2013-04-14 14:20:00,
2013-04-14 09:30:00,58.6,46.5,29.35,West,278,10.0,13.0,64,0.00,,,0.00,Wunderground v.1.15,2013-04-14 14:30:00,
2013-04-14 09:40:00,58.3,46.2,29.35,West,278,11.0,16.0,64,0.00,,,0.00,Wunderground v.1.15,2013-04-14 14:40:00,
2013-04-14 09:50:00,58.3,46.2,29.36,WNW,291,13.0,13.0,64,0.00,,,0.00,Wunderground v.1.15,2013-04-14 14:50:00,
2013-04-14 10:00:00,57.8,45.7,29.37,West,276,12.0,13.0,64,0.00,,,0.00,Wunderground v.1.15,2013-04-14 15:00:00,
2013-04-14 10:10:00,57.8,45.3,29.37,WNW,287,11.0,13.0,63,0.00,,,0.00,Wunderground v.1.15,2013-04-14 15:10:00,
2013-04-14 10:20:00,57.7,45.2,29.37,WNW,290,12.0,13.0,63,0.00,,,0.00,Wunderground v.1.15,2013-04-14 15:20:00,
2013-04-14 10:30:00,57.5,45.4,29.37,WNW,283,11.0,13.0,64,0.00,,,0.00,Wunderground v.1.15,2013-04-14 15:30:00,
2013-04-14 10:40:00,57.5,45.4,29.38,WNW,296,12.0,12.0,64,0.00,,,0.00,Wunderground v.1.15,2013-04-14 15:40:00,
2013-04-14 10:50:00,58.0,45.0,29.38,WNW,300,12.0,19.0,62,0.00,,,0.00,Wunderground v.1.15,2013-04-14 15:50:00,
2013-04-14 11:00:00,58.7,45.3,29.38,WNW,293,14.0,16.0,61,0.00,,,0.00,Wunderground v.1.15,2013-04-14 16:00:00,
2013-04-14 11:10:00,59.5,43.8,29.39,WNW,295,15.0,16.0,56,0.00,,,0.00,Wunderground v.1.15,2013-04-14 16:10:00,
2013-04-14 11:20:00,59.6,41.9,29.40,NW,304,14.0,19.0,52,0.00,,,0.00,Wunderground v.1.15,2013-04-14 16:20:00,
2013-04-14 11:30:00,59.7,40.0,29.40,WNW,302,17.0,24.0,48,0.00,,,0.00,Wunderground v.1.15,2013-04-14 16:30:00,
2013-04-14 11:40:00,59.7,40.5,29.41,WNW,293,15.0,15.0,49,0.00,,,0.00,Wunderground v.1.15,2013-04-14 16:40:00,
2013-04-14 11:50:00,59.6,39.3,29.42,WNW,287,14.0,17.0,47,0.00,,,0.00,Wunderground v.1.15,2013-04-14 16:50:00,
2013-04-14 12:00:00,59.7,40.0,29.43,WNW,300,13.0,13.0,48,0.00,,,0.00,Wunderground v.1.15,2013-04-14 17:00:00,
2013-04-14 12:10:00,59.7,34.0,29.44,NW,314,13.0,13.0,38,0.00,,,0.00,Wunderground v.1.15,2013-04-14 17:10:00,
2013-04-14 12:20:00,59.4,33.8,29.44,WNW,287,15.0,15.0,38,0.00,,,0.00,Wunderground v.1.15,2013-04-14 17:20:00,
2013-04-14 12:30:00,59.8,32.8,29.45,WNW,302,13.0,14.0,36,0.00,,,0.00,Wunderground v.1.15,2013-04-14 17:30:00,
2013-04-14 12:40:00,60.1,33.0,29.45,WNW,298,12.0,16.0,36,0.00,,,0.00,Wunderground v.1.15,2013-04-14 17:40:00,
2013-04-14 12:50:00,60.5,32.7,29.45,West,269,11.0,11.0,35,0.00,,,0.00,Wunderground v.1.15,2013-04-14 17:50:00,
2013-04-14 13:00:00,59.8,29.9,29.46,NW,305,11.0,11.0,32,0.00,,,0.00,Wunderground v.1.15,2013-04-14 18:00:00,
2013-04-14 13:10:00,59.3,30.2,29.47,WNW,295,8.0,8.0,33,0.00,,,0.00,Wunderground v.1.15,2013-04-14 18:10:00,
2013-04-14 13:20:00,61.8,30.0,29.47,NNW,336,10.0,10.0,30,0.00,,,0.00,Wunderground v.1.15,2013-04-14 18:20:00,
2013-04-14 13:30:00,61.5,30.6,29.47,WNW,295,8.0,9.0,31,0.00,,,0.00,Wunderground v.1.15,2013-04-14 18:30:00,
2013-04-14 13:40:00,61.8,27.4,29.48,WNW,297,10.0,15.0,27,0.00,,,0.00,Wunderground v.1.15,2013-04-14 18:40:00,
2013-04-14 13:50:00,63.2,28.6,29.48,West,280,11.0,13.0,27,0.00,,,0.00,Wunderground v.1.15,2013-04-14 18:50:00,
2013-04-14 14:00:00,62.5,24.2,29.48,WNW,285,11.0,12.0,23,0.00,,,0.00,Wunderground v.1.15,2013-04-14 19:00:00,
2013-04-14 14:10:00,62.4,26.1,29.48,WNW,295,12.0,12.0,25,0.00,,,0.00,Wunderground v.1.15,2013-04-14 19:10:00,
2013-04-14 14:20:00,63.9,27.4,29.49,West,277,11.0,18.0,25,0.00,,,0.00,Wunderground v.1.15,2013-04-14 19:20:00,
2013-04-14 14:30:00,64.6,24.9,29.49,WNW,285,13.0,13.0,22,0.00,,,0.00,Wunderground v.1.15,2013-04-14 19:30:00,
2013-04-14 14:40:00,64.2,25.6,29.50,WNW,302,13.0,16.0,23,0.00,,,0.00,Wunderground v.1.15,2013-04-14 19:40:00,
2013-04-14 14:50:00,64.0,25.4,29.49,WNW,294,13.0,13.0,23,0.00,,,0.00,Wunderground v.1.15,2013-04-14 19:50:00,
2013-04-14 15:00:00,63.8,28.2,29.49,WNW,302,13.0,14.0,26,0.00,,,0.00,Wunderground v.1.15,2013-04-14 20:00:00,
2013-04-14 15:10:00,64.6,25.9,29.49,WNW,285,13.0,17.0,23,0.00,,,0.00,Wunderground v.1.15,2013-04-14 20:10:00,
2013-04-14 15:20:00,65.2,27.5,29.49,West,269,13.0,13.0,24,0.00,,,0.00,Wunderground v.1.15,2013-04-14 20:20:00,
2013-04-14 15:30:00,63.3,24.8,29.49,WNW,295,13.0,16.0,23,0.00,,,0.00,Wunderground v.1.15,2013-04-14 20:30:00,
2013-04-14 15:40:00,63.6,26.1,29.50,NW,312,13.0,20.0,24,0.00,,,0.00,Wunderground v.1.15,2013-04-14 20:40:00,
2013-04-14 15:50:00,64.3,27.7,29.50,NNW,328,14.0,21.0,25,0.00,,,0.00,Wunderground v.1.15,2013-04-14 20:50:00,
2013-04-14 16:00:00,64.4,24.7,29.50,West,280,15.0,15.0,22,0.00,,,0.00,Wunderground v.1.15,2013-04-14 21:00:00,
2013-04-14 16:10:00,64.1,27.5,29.51,WNW,301,15.0,15.0,25,0.00,,,0.00,Wunderground v.1.15,2013-04-14 21:10:00,
2013-04-14 16:20:00,63.8,26.3,29.52,WNW,288,14.0,14.0,24,0.00,,,0.00,Wunderground v.1.15,2013-04-14 21:20:00,
2013-04-14 16:30:00,63.4,26.9,29.53,NW,307,15.0,15.0,25,0.00,,,0.00,Wunderground v.1.15,2013-04-14 21:30:00,
2013-04-14 16:40:00,63.3,25.9,29.54,WNW,303,15.0,15.0,24,0.00,,,0.00,Wunderground v.1.15,2013-04-14 21:40:00,
2013-04-14 16:50:00,61.9,26.6,29.54,WNW,300,15.0,15.0,26,0.00,,,0.00,Wunderground v.1.15,2013-04-14 21:50:00,
2013-04-14 17:00:00,62.4,27.0,29.54,WNW,288,14.0,14.0,26,0.00,,,0.00,Wunderground v.1.15,2013-04-14 22:00:00,
2013-04-14 17:10:00,62.7,27.3,29.55,NW,305,13.0,13.0,26,0.00,,,0.00,Wunderground v.1.15,2013-04-14 22:10:00,
2013-04-14 17:20:00,62.5,26.2,29.55,WNW,294,16.0,16.0,25,0.00,,,0.00,Wunderground v.1.15,2013-04-14 22:20:00,
2013-04-14 17:30:00,62.0,25.7,29.56,NW,305,15.0,15.0,25,0.00,,,0.00,Wunderground v.1.15,2013-04-14 22:30:00,
2013-04-14 17:40:00,61.8,23.6,29.57,WNW,290,14.0,19.0,23,0.00,,,0.00,Wunderground v.1.15,2013-04-14 22:40:00,
2013-04-14 17:50:00,62.1,24.8,29.57,NW,306,14.0,14.0,24,0.00,,,0.00,Wunderground v.1.15,2013-04-14 22:50:00,
2013-04-14 18:00:00,61.8,23.6,29.57,NW,322,12.0,13.0,23,0.00,,,0.00,Wunderground v.1.15,2013-04-14 23:00:00,
2013-04-14 18:10:00,60.9,22.8,29.59,NNE,12,14.0,14.0,23,0.00,,,0.00,Wunderground v.1.15,2013-04-14 23:10:00,
2013-04-14 18:20:00,60.5,22.5,29.59,West,281,12.0,19.0,23,0.00,,,0.00,Wunderground v.1.15,2013-04-14 23:20:00,
2013-04-14 18:30:00,60.4,22.4,29.60,WNW,300,14.0,14.0,23,0.00,,,0.00,Wunderground v.1.15,2013-04-14 23:30:00,
2013-04-14 18:40:00,60.0,22.0,29.61,WNW,287,16.0,16.0,23,0.00,,,0.00,Wunderground v.1.15,2013-04-14 23:40:00,
2013-04-14 18:50:00,59.8,22.9,29.62,WNW,300,14.0,14.0,24,0.00,,,0.00,Wunderground v.1.15,2013-04-14 23:50:00,
2013-04-14 19:00:00,59.2,24.3,29.62,NW,326,13.0,13.0,26,0.00,,,0.00,Wunderground v.1.15,2013-04-15 00:00:00,
2013-04-14 19:10:00,58.4,22.7,29.63,NW,308,13.0,13.0,25,0.00,,,0.00,Wunderground v.1.15,2013-04-15 00:10:00,
2013-04-14 19:20:00,57.0,23.3,29.64,WNW,300,12.0,16.0,27,0.00,,,0.00,Wunderground v.1.15,2013-04-15 00:20:00,
2013-04-14 19:30:00,55.5,24.5,29.64,WNW,299,8.0,8.0,30,0.00,,,0.00,Wunderground v.1.15,2013-04-15 00:30:00,
2013-04-14 19:40:00,54.3,25.8,29.65,NW,304,5.0,5.0,33,0.00,,,0.00,Wunderground v.1.15,2013-04-15 00:40:00,
2013-04-14 19:50:00,53.2,25.5,29.66,WNW,302,4.0,5.0,34,0.00,,,0.00,Wunderground v.1.15,2013-04-15 00:50:00,
2013-04-14 20:00:00,52.8,25.9,29.66,NW,318,5.0,5.0,35,0.00,,,0.00,Wunderground v.1.15,2013-04-15 01:00:00,
2013-04-14 20:10:00,51.8,25.7,29.66,WNW,301,3.0,3.0,36,0.00,,,0.00,Wunderground v.1.15,2013-04-15 01:10:00,
2013-04-14 20:20:00,51.0,25.6,29.67,WNW,284,3.0,3.0,37,0.00,,,0.00,Wunderground v.1.15,2013-04-15 01:20:00,
2013-04-14 20:30:00,49.2,25.9,29.67,WNW,302,1.0,2.0,40,0.00,,,0.00,Wunderground v.1.15,2013-04-15 01:30:00,
2013-04-14 20:40:00,48.4,25.8,29.67,NNW,344,0.0,0.0,41,0.00,,,0.00,Wunderground v.1.15,2013-04-15 01:40:00,
2013-04-14 20:50:00,46.6,25.8,29.67,NNW,333,0.0,1.0,44,0.00,,,0.00,Wunderground v.1.15,2013-04-15 01:50:00,
2013-04-14 21:00:00,45.6,26.0,29.68,NW,312,1.0,1.0,46,0.00,,,0.00,Wunderground v.1.15,2013-04-15 02:00:00,
2013-04-14 21:10:00,45.5,25.9,29.68,North,352,1.0,1.0,46,0.00,,,0.00,Wunderground v.1.15,2013-04-15 02:10:00,
2013-04-14 21:20:00,44.3,25.8,29.68,NW,324,1.0,1.0,48,0.00,,,0.00,Wunderground v.1.15,2013-04-15 02:20:00,
2013-04-14 21:30:00,43.4,26.0,29.69,NW,326,0.0,0.0,50,0.00,,,0.00,Wunderground v.1.15,2013-04-15 02:30:00,
2013-04-14 21:40:00,41.6,26.2,29.69,NW,323,0.0,0.0,54,0.00,,,0.00,Wunderground v.1.15,2013-04-15 02:40:00,
2013-04-14 21:50:00,39.3,25.7,29.70,NW,323,0.0,0.0,58,0.00,,,0.00,Wunderground v.1.15,2013-04-15 02:50:00,
2013-04-14 22:00:00,40.4,25.9,29.70,NW,323,0.0,0.0,56,0.00,,,0.00,Wunderground v.1.15,2013-04-15 03:00:00,
2013-04-14 22:10:00,40.2,26.6,29.70,NW,322,0.0,0.0,58,0.00,,,0.00,Wunderground v.1.15,2013-04-15 03:10:00,
2013-04-14 22:20:00,39.5,25.9,29.71,ESE,108,1.0,1.0,58,0.00,,,0.00,Wunderground v.1.15,2013-04-15 03:20:00,
2013-04-14 22:30:00,39.9,25.0,29.70,NW,315,0.0,0.0,55,0.00,,,0.00,Wunderground v.1.15,2013-04-15 03:30:00,
2013-04-14 22:40:00,40.4,25.5,29.71,NW,322,1.0,2.0,55,0.00,,,0.00,Wunderground v.1.15,2013-04-15 03:40:00,
2013-04-14 22:50:00,39.6,25.2,29.71,NW,315,0.0,0.0,56,0.00,,,0.00,Wunderground v.1.15,2013-04-15 03:50:00,
2013-04-14 23:00:00,38.1,25.0,29.71,NW,314,0.0,0.0,59,0.00,,,0.00,Wunderground v.1.15,2013-04-15 04:00:00,
2013-04-14 23:10:00,37.0,25.2,29.71,NW,315,0.0,0.0,62,0.00,,,0.00,Wunderground v.1.15,2013-04-15 04:10:00,
2013-04-14 23:20:00,36.4,24.6,29.71,NW,315,0.0,0.0,62,0.00,,,0.00,Wunderground v.1.15,2013-04-15 04:20:00,
2013-04-14 23:30:00,35.6,24.2,29.71,NW,315,0.0,0.0,63,0.00,,,0.00,Wunderground v.1.15,2013-04-15 04:30:00,
2013-04-14 23:40:00,35.1,24.9,29.71,NW,314,0.0,0.0,66,0.00,,,0.00,Wunderground v.1.15,2013-04-15 04:40:00,
2013-04-14 23:50:00,34.6,24.8,29.72,NW,315,0.0,0.0,67,0.00,,,0.00,Wunderground v.1.15,2013-04-15 04:50:00,